Time;durP1;ratioP1;P1;durP2;ratioP2;P2;SDS_P1;SDS_P2;PMS_P1;PMS_P2;Temp;Humidity;BMP_temperature;BMP_pressure;BME280_temperature;BME280_humidity;BME280_pressure;Samples;Min_cycle;Max_cycle;Signal;HPM_P1;HPM_P2
2022/09/19 00:01:52;;;;;;;6.60;3.97;;;;;;;-145.49;100.00;62790.56;4971836;28;20031;-73
2022/09/19 00:04:28;;;;;;;4.20;2.45;;;;;;;-145.49;100.00;62790.56;4972016;28;20520;-73
2022/09/19 00:06:57;;;;;;;5.70;3.17;;;;;;;-145.49;100.00;62790.56;4970461;28;20038;-73
2022/09/19 00:09:28;;;;;;;5.65;3.53;;;;;;;-145.49;100.00;62790.56;4984583;28;20035;-73
2022/09/19 00:12:01;;;;;;;2.75;2.45;;;;;;;-145.49;100.00;62790.56;4955235;28;20621;-73
2022/09/19 00:14:37;;;;;;;3.83;2.75;;;;;;;-145.49;100.00;62790.56;4969647;28;20039;-73
2022/09/19 00:17:09;;;;;;;2.63;2.17;;;;;;;-145.49;100.00;62790.56;4967269;28;20050;-72
2022/09/19 00:19:37;;;;;;;6.05;2.63;;;;;;;-145.49;100.00;62790.56;4969268;28;20030;-72
2022/09/19 00:22:07;;;;;;;2.88;1.58;;;;;;;-145.49;100.00;62790.56;4979022;28;20031;-73
2022/09/19 00:24:49;;;;;;;4.18;2.13;;;;;;;-145.49;100.00;62790.56;4974981;28;20047;-73
2022/09/19 00:27:27;;;;;;;3.00;1.88;;;;;;;-145.49;100.00;62790.56;4963752;28;20030;-73
2022/09/19 00:29:53;;;;;;;3.72;2.03;;;;;;;-145.49;100.00;62790.56;4967901;28;20070;-73
2022/09/19 00:32:23;;;;;;;2.65;1.95;;;;;;;-145.49;100.00;62790.56;4972979;28;20397;-73
2022/09/19 00:34:52;;;;;;;3.63;2.25;;;;;;;-145.49;100.00;62790.56;4990048;28;20037;-73
2022/09/19 00:37:19;;;;;;;3.25;2.63;;;;;;;-145.49;100.00;62790.56;4941040;28;20049;-73
2022/09/19 00:39:46;;;;;;;3.80;2.47;;;;;;;-145.49;100.00;62790.56;4952354;28;20039;-73
2022/09/19 00:42:17;;;;;;;2.67;2.47;;;;;;;-145.49;100.00;62790.56;4987097;28;20043;-73
2022/09/19 00:44:43;;;;;;;3.80;2.10;;;;;;;-145.49;100.00;62790.56;4968310;28;20034;-73
2022/09/19 00:47:14;;;;;;;3.88;2.53;;;;;;;-145.49;100.00;62790.56;4964018;28;20046;-73
2022/09/19 00:49:48;;;;;;;2.90;2.58;;;;;;;-145.49;100.00;62790.56;4968600;28;20385;-73
2022/09/19 00:52:27;;;;;;;5.65;2.97;;;;;;;-145.49;100.00;62790.56;4967957;28;20027;-73
2022/09/19 00:54:56;;;;;;;9.27;3.60;;;;;;;-145.49;100.00;62790.56;4970893;28;20401;-73
2022/09/19 00:57:35;;;;;;;3.30;2.95;;;;;;;-145.49;100.00;62790.56;4966586;28;20057;-73
2022/09/19 01:00:06;;;;;;;4.78;3.20;;;;;;;-145.49;100.00;62790.56;4967947;28;20465;-74
2022/09/19 01:02:35;;;;;;;5.00;3.60;;;;;;;-145.49;100.00;62790.56;4973816;28;20054;-74
2022/09/19 01:05:03;;;;;;;3.47;2.53;;;;;;;-145.49;100.00;62790.56;4970794;28;20057;-73
2022/09/19 01:08:06;;;;;;;7.55;3.90;;;;;;;-145.49;100.00;62790.56;4970914;28;20034;-74
2022/09/19 01:11:04;;;;;;;6.20;2.83;;;;;;;-145.49;100.00;62790.56;4985215;28;20516;-74
2022/09/19 01:13:41;;;;;;;7.85;3.25;;;;;;;-145.49;100.00;62790.56;4968835;28;20226;-73
2022/09/19 01:16:21;;;;;;;4.20;2.72;;;;;;;-145.49;100.00;62790.56;4969169;28;20034;-73
2022/09/19 01:19:10;;;;;;;4.65;2.50;;;;;;;-145.49;100.00;62790.56;4968227;28;20027;-73
2022/09/19 01:21:47;;;;;;;4.72;2.97;;;;;;;-145.49;100.00;62790.56;4964902;28;20034;-73
2022/09/19 01:24:34;;;;;;;3.80;3.17;;;;;;;-145.49;100.00;62790.56;4970496;28;20038;-74
2022/09/19 01:27:12;;;;;;;2.60;2.03;;;;;;;-145.49;100.00;62790.56;4953853;28;20042;-73
2022/09/19 01:29:47;;;;;;;12.68;1.92;;;;;;;-145.49;100.00;62790.56;4960477;28;20038;-74
2022/09/19 01:32:18;;;;;;;2.58;1.92;;;;;;;-145.49;100.00;62790.56;4965920;28;20031;-74
2022/09/19 01:35:02;;;;;;;2.45;1.92;;;;;;;-145.49;100.00;62790.56;4984385;28;20030;-74
2022/09/19 01:37:38;;;;;;;4.78;2.42;;;;;;;-145.49;100.00;62790.56;4973113;28;20043;-74
2022/09/19 01:40:06;;;;;;;3.75;1.83;;;;;;;-145.49;100.00;62790.56;4965967;28;20401;-74
2022/09/19 01:42:55;;;;;;;1.92;1.73;;;;;;;-145.49;100.00;62790.56;4994400;28;20474;-74
2022/09/19 01:45:29;;;;;;;2.20;1.40;;;;;;;-145.49;100.00;62790.56;4971688;28;20043;-74
2022/09/19 01:47:59;;;;;;;2.15;1.60;;;;;;;-145.49;100.00;62790.56;4976882;28;20412;-74
2022/09/19 01:50:42;;;;;;;2.90;2.05;;;;;;;-145.49;100.00;62790.56;4971227;28;20035;-73
2022/09/19 01:53:17;;;;;;;2.35;2.08;;;;;;;-145.49;100.00;62790.56;4952094;28;20481;-73
2022/09/19 01:56:28;;;;;;;4.35;1.50;;;;;;;-145.49;100.00;62790.56;4958718;28;20047;-73
2022/09/19 01:59:03;;;;;;;1.80;1.23;;;;;;;-145.49;100.00;62790.56;4975848;28;20054;-74
2022/09/19 02:01:40;;;;;;;1.60;1.25;;;;;;;-145.49;100.00;62790.56;4964947;28;20410;-73
2022/09/19 02:04:13;;;;;;;2.45;1.42;;;;;;;-145.49;100.00;62790.56;4953337;28;20054;-74
2022/09/19 02:06:53;;;;;;;5.60;2.03;;;;;;;-145.49;100.00;62790.56;4983227;28;20497;-73
2022/09/19 02:09:36;;;;;;;5.13;2.55;;;;;;;-145.49;100.00;62790.56;4975210;28;20043;-73
2022/09/19 02:12:05;;;;;;;1.60;1.00;;;;;;;-145.49;100.00;62790.56;4971037;28;20030;-74
2022/09/19 02:14:38;;;;;;;1.27;1.17;;;;;;;-145.49;100.00;62790.56;4970157;28;20039;-74
2022/09/19 02:17:14;;;;;;;2.13;1.17;;;;;;;-145.49;100.00;62790.56;4979768;28;20516;-73
2022/09/19 02:19:51;;;;;;;3.10;2.05;;;;;;;-145.49;100.00;62790.56;4971800;28;20034;-74
2022/09/19 02:22:26;;;;;;;1.55;1.23;;;;;;;-145.49;100.00;62790.56;4971872;28;20031;-74
2022/09/19 02:25:08;;;;;;;3.15;1.75;;;;;;;-145.49;100.00;62790.56;4979306;28;20043;-74
2022/09/19 02:27:49;;;;;;;3.17;1.38;;;;;;;-145.49;100.00;62790.56;4980702;28;20038;-74
2022/09/19 02:30:21;;;;;;;2.83;1.67;;;;;;;-145.49;100.00;62790.56;4950577;28;20042;-74
2022/09/19 02:32:50;;;;;;;2.53;1.10;;;;;;;-145.49;100.00;62790.56;4967238;28;20392;-73
2022/09/19 02:35:34;;;;;;;1.83;0.90;;;;;;;-145.49;100.00;62790.56;4967615;28;20043;-73
2022/09/19 02:38:18;;;;;;;4.13;1.35;;;;;;;-145.49;100.00;62790.56;4968375;28;20042;-72
2022/09/19 02:41:01;;;;;;;3.05;1.20;;;;;;;-145.49;100.00;62790.56;4952679;28;20408;-80
2022/09/19 02:43:48;;;;;;;2.92;1.13;;;;;;;-145.49;100.00;62790.56;4963374;28;20393;-77
2022/09/19 02:46:30;;;;;;;2.00;1.05;;;;;;;-145.49;100.00;62790.56;4986726;28;20400;-76
2022/09/19 02:48:59;;;;;;;0.93;0.70;;;;;;;-145.49;100.00;62790.56;4969259;28;20519;-77
2022/09/19 02:51:40;;;;;;;2.03;1.08;;;;;;;-145.49;100.00;62790.56;4973330;28;20054;-72
2022/09/19 02:54:19;;;;;;;0.93;0.63;;;;;;;-145.49;100.00;62790.56;4969527;28;20062;-73
2022/09/19 02:56:48;;;;;;;1.10;0.63;;;;;;;-145.49;100.00;62790.56;4987285;28;20038;-73
2022/09/19 02:59:21;;;;;;;1.20;0.88;;;;;;;-145.49;100.00;62790.56;4974407;28;20058;-72
2022/09/19 03:02:11;;;;;;;2.83;0.98;;;;;;;-145.49;100.00;62790.56;4964720;28;20046;-73
2022/09/19 03:04:40;;;;;;;;;;;;;;;-145.49;100.00;62790.56;4972401;28;20396;-73
2022/09/19 03:07:13;;;;;;;1.90;0.80;;;;;;;-145.49;100.00;62790.56;4972370;28;19917;-72
2022/09/19 03:09:59;;;;;;;2.70;0.95;;;;;;;-145.49;100.00;62790.56;4972599;28;20042;-73
2022/09/19 03:12:46;;;;;;;1.35;0.93;;;;;;;-145.49;100.00;62790.56;4970805;28;20039;-73
2022/09/19 03:15:16;;;;;;;1.98;1.55;;;;;;;-145.49;100.00;62790.56;4972034;28;20054;-73
2022/09/19 03:17:49;;;;;;;4.07;1.48;;;;;;;-145.49;100.00;62790.56;4987278;28;20085;-73
2022/09/19 03:20:24;;;;;;;2.65;1.30;;;;;;;-145.49;100.00;62790.56;4968106;28;20396;-73
2022/09/19 03:22:53;;;;;;;5.07;0.82;;;;;;;-145.49;100.00;62790.56;4972262;28;20050;-73
2022/09/19 03:25:27;;;;;;;4.63;1.63;;;;;;;-145.49;100.00;62790.56;4980872;28;20411;-73
2022/09/19 03:27:56;;;;;;;1.85;1.35;;;;;;;-145.49;100.00;62790.56;4983499;28;20370;-72
2022/09/19 03:30:23;;;;;;;1.70;0.85;;;;;;;-145.49;100.00;62790.56;4995845;28;20051;-73
2022/09/19 03:32:53;;;;;;;1.55;0.90;;;;;;;-145.49;100.00;62790.56;4950067;28;20054;-72
2022/09/19 03:35:25;;;;;;;2.85;1.52;;;;;;;-145.49;100.00;62790.56;4972711;28;20042;-73
2022/09/19 03:37:52;;;;;;;1.55;1.10;;;;;;;-145.49;100.00;62790.56;4996390;28;20457;-73
2022/09/19 03:40:22;;;;;;;1.42;1.15;;;;;;;-145.49;100.00;62790.56;4969224;28;20057;-73
2022/09/19 03:42:52;;;;;;;2.92;0.98;;;;;;;-145.49;100.00;62790.56;4969596;28;20046;-72
2022/09/19 03:45:20;;;;;;;1.52;1.10;;;;;;;-145.49;100.00;62790.56;4979602;23;20531;-81
2022/09/19 03:47:48;;;;;;;9.20;1.58;;;;;;;-145.49;100.00;62790.56;4959720;28;20035;-81
2022/09/19 03:50:17;;;;;;;2.40;1.00;;;;;;;-145.49;100.00;62790.56;4963354;28;20039;-80
2022/09/19 03:52:54;;;;;;;1.50;1.33;;;;;;;-145.49;100.00;62790.56;4972729;28;20049;-81
2022/09/19 03:55:25;;;;;;;3.60;1.13;;;;;;;-145.49;100.00;62790.56;4941602;28;20042;-81
2022/09/19 03:57:51;;;;;;;2.33;0.75;;;;;;;-145.49;100.00;62790.56;4972831;28;20508;-81
2022/09/19 04:00:24;;;;;;;2.88;1.40;;;;;;;-145.49;100.00;62790.56;4963135;28;20051;-81
2022/09/19 04:02:58;;;;;;;1.65;1.30;;;;;;;-145.49;100.00;62790.56;4965614;28;20039;-80
2022/09/19 04:05:32;;;;;;;0.82;0.80;;;;;;;-145.49;100.00;62790.56;4974206;28;20057;-80
2022/09/19 04:08:01;;;;;;;1.10;0.82;;;;;;;-145.49;100.00;62790.56;4970134;28;20138;-81
2022/09/19 04:10:27;;;;;;;5.30;1.73;;;;;;;-145.49;100.00;62790.56;4969322;28;20039;-80
2022/09/19 04:12:56;;;;;;;6.75;1.35;;;;;;;-145.49;100.00;62790.56;4969471;28;20049;-81
2022/09/19 04:15:27;;;;;;;3.00;1.60;;;;;;;-145.49;100.00;62790.56;4983202;28;20343;-80
2022/09/19 04:17:54;;;;;;;3.78;1.08;;;;;;;-145.49;100.00;62790.56;4953811;28;20058;-80
2022/09/19 04:20:23;;;;;;;3.05;1.10;;;;;;;-145.49;100.00;62790.56;4953930;28;21921;-80
2022/09/19 04:23:16;;;;;;;3.95;1.45;;;;;;;-145.49;100.00;62790.56;4960720;28;20484;-80
2022/09/19 04:26:12;;;;;;;2.70;1.10;;;;;;;-145.49;100.00;62790.56;4967720;28;20066;-81
2022/09/19 04:28:43;;;;;;;3.50;1.50;;;;;;;-145.49;100.00;62790.56;4949542;28;20035;-79
2022/09/19 04:31:12;;;;;;;4.97;1.65;;;;;;;-145.49;100.00;62790.56;4973495;28;20405;-81
2022/09/19 04:33:42;;;;;;;3.10;1.75;;;;;;;-145.49;100.00;62790.56;4969401;28;20389;-81
2022/09/19 04:36:16;;;;;;;1.35;1.23;;;;;;;-145.49;100.00;62790.56;4966640;28;20039;-81
2022/09/19 04:38:46;;;;;;;1.97;0.73;;;;;;;-145.49;100.00;62790.56;4953138;28;20045;-81
2022/09/19 04:41:24;;;;;;;2.85;1.48;;;;;;;-145.49;100.00;62790.56;4969049;28;20394;-81
2022/09/19 04:43:50;;;;;;;2.17;1.20;;;;;;;-145.49;100.00;62790.56;4972226;28;20042;-82
2022/09/19 04:46:41;;;;;;;2.90;1.48;;;;;;;-145.49;100.00;62790.56;4969978;28;20030;-81
2022/09/19 04:49:16;;;;;;;1.42;0.93;;;;;;;-145.49;100.00;62790.56;4968887;28;20474;-82
2022/09/19 04:51:47;;;;;;;2.25;1.08;;;;;;;-145.49;100.00;62790.56;4970390;28;20493;-81
2022/09/19 04:54:14;;;;;;;4.10;1.50;;;;;;;-145.49;100.00;62790.56;4972390;28;20041;-81
2022/09/19 04:56:46;;;;;;;2.75;0.93;;;;;;;-145.49;100.00;62790.56;4969043;28;20046;-82
2022/09/19 04:59:17;;;;;;;6.40;1.73;;;;;;;-145.49;100.00;62790.56;4942725;28;20053;-81
2022/09/19 05:01:53;;;;;;;6.13;2.08;;;;;;;-145.49;100.00;62790.56;4955492;28;20297;-81
2022/09/19 05:04:20;;;;;;;5.22;2.72;;;;;;;-145.49;100.00;62790.56;4971137;28;20039;-81
2022/09/19 05:06:51;;;;;;;3.83;1.13;;;;;;;-145.49;100.00;62790.56;4965874;28;20057;-81
2022/09/19 05:09:22;;;;;;;4.53;1.50;;;;;;;-145.49;100.00;62790.56;4971415;28;20485;-82
2022/09/19 05:12:04;;;;;;;3.13;2.03;;;;;;;-145.49;100.00;62790.56;4970811;28;20053;-82
2022/09/19 05:14:41;;;;;;;6.53;1.35;;;;;;;-145.49;100.00;62790.56;4970900;28;20031;-81
2022/09/19 05:17:08;;;;;;;2.17;1.23;;;;;;;-145.49;100.00;62790.56;4968171;28;20034;-81
2022/09/19 05:19:39;;;;;;;2.75;1.23;;;;;;;-145.49;100.00;62790.56;4982412;28;20034;-81
2022/09/19 05:22:08;;;;;;;3.15;1.80;;;;;;;-145.49;100.00;62790.56;4953131;28;20266;-81
2022/09/19 05:24:37;;;;;;;2.67;1.20;;;;;;;-145.49;100.00;62790.56;4946312;28;20393;-83
2022/09/19 05:27:06;;;;;;;4.20;1.30;;;;;;;-145.49;100.00;62790.56;4970452;28;20396;-84
2022/09/19 05:29:36;;;;;;;3.53;1.90;;;;;;;-145.49;100.00;62790.56;4955837;28;20041;-84
2022/09/19 05:32:07;;;;;;;6.23;2.17;;;;;;;-145.49;100.00;62790.56;4971260;28;20039;-84
2022/09/19 05:34:50;;;;;;;7.20;4.22;;;;;;;-145.49;100.00;62790.56;4956790;28;20294;-84
2022/09/19 05:37:46;;;;;;;2.50;1.27;;;;;;;-145.49;100.00;62790.56;4972647;28;20047;-84
2022/09/19 05:40:35;;;;;;;2.28;1.73;;;;;;;-145.49;100.00;62790.56;4984927;28;20038;-84
2022/09/19 05:43:21;;;;;;;6.32;1.98;;;;;;;-145.49;100.00;62790.56;4979346;28;20032;-83
2022/09/19 05:45:50;;;;;;;4.30;2.28;;;;;;;-145.49;100.00;62790.56;4960483;28;20036;-83
2022/09/19 05:48:18;;;;;;;3.33;1.85;;;;;;;-145.49;100.00;62790.56;4963229;28;20054;-83
2022/09/19 05:50:51;;;;;;;3.05;2.20;;;;;;;-145.49;100.00;62790.56;4970695;28;20489;-82
2022/09/19 05:56:25;;;;;;;4.57;2.38;;;;;;;-145.49;100.00;62790.56;4966938;28;20026;-82
2022/09/19 05:59:00;;;;;;;6.50;2.85;;;;;;;-145.49;100.00;62790.56;4970923;28;20282;-82
2022/09/19 06:01:36;;;;;;;7.72;2.22;;;;;;;-145.49;100.00;62790.56;4966339;28;20031;-83
2022/09/19 06:04:03;;;;;;;5.50;2.42;;;;;;;-145.49;100.00;62790.56;4978782;28;20051;-83
2022/09/19 06:06:38;;;;;;;3.35;2.47;;;;;;;-145.49;100.00;62790.56;4965768;28;20039;-83
2022/09/19 06:09:13;;;;;;;5.65;2.25;;;;;;;-145.49;100.00;62790.56;4970453;28;20039;-83
2022/09/19 06:11:48;;;;;;;4.97;1.95;;;;;;;-145.49;100.00;62790.56;4944212;29;20039;-83
2022/09/19 06:14:18;;;;;;;3.92;1.92;;;;;;;-145.49;100.00;62790.56;4978239;28;20292;-83
2022/09/19 06:16:49;;;;;;;3.92;2.88;;;;;;;-145.49;100.00;62790.56;4971111;28;20045;-83
2022/09/19 06:19:36;;;;;;;5.13;2.40;;;;;;;-145.49;100.00;62790.56;4975455;28;20393;-83
2022/09/19 06:22:16;;;;;;;10.50;1.73;;;;;;;-145.49;100.00;62790.56;4956707;28;20046;-83
2022/09/19 06:24:51;;;;;;;9.50;2.10;;;;;;;-145.49;100.00;62790.56;4973649;28;20042;-83
2022/09/19 06:27:23;;;;;;;6.82;2.10;;;;;;;-145.49;100.00;62790.56;4968596;28;20038;-83
2022/09/19 06:29:54;;;;;;;2.60;1.85;;;;;;;-145.49;100.00;62790.56;4972869;28;20057;-82
2022/09/19 06:32:23;;;;;;;8.20;2.15;;;;;;;-145.49;100.00;62790.56;4974564;28;20030;-83
2022/09/19 06:35:03;;;;;;;7.65;2.03;;;;;;;-145.49;100.00;62790.56;4959339;28;20054;-82
2022/09/19 06:37:37;;;;;;;4.68;1.98;;;;;;;-145.49;100.00;62790.56;4957757;28;20046;-82
2022/09/19 06:40:10;;;;;;;7.60;1.85;;;;;;;-145.49;100.00;62790.56;4973450;28;20034;-82
2022/09/19 06:43:17;;;;;;;5.45;2.15;;;;;;;-145.49;100.00;62790.56;4955908;28;20046;-82
2022/09/19 06:46:14;;;;;;;5.60;1.83;;;;;;;-145.49;100.00;62790.56;4969813;28;20035;-83
2022/09/19 06:49:01;;;;;;;2.72;1.60;;;;;;;-145.49;100.00;62790.56;4973864;28;20496;-83
2022/09/19 06:51:43;;;;;;;4.32;1.67;;;;;;;-145.49;100.00;62790.56;4956752;28;20294;-83
2022/09/19 06:54:14;;;;;;;6.00;1.70;;;;;;;-145.49;100.00;62790.56;4973266;28;20034;-83
2022/09/19 06:56:40;;;;;;;4.47;1.92;;;;;;;-145.49;100.00;62790.56;4972006;28;20027;-83
2022/09/19 06:59:14;;;;;;;8.70;1.90;;;;;;;-145.49;100.00;62790.56;4967295;28;20309;-83
2022/09/19 07:01:45;;;;;;;4.07;1.73;;;;;;;-145.49;100.00;62790.56;4973199;28;20031;-83
2022/09/19 07:04:13;;;;;;;4.57;2.63;;;;;;;-145.49;100.00;62790.56;4968749;28;20035;-83
2022/09/19 07:07:11;;;;;;;6.97;2.97;;;;;;;-145.49;100.00;62790.56;4961605;28;20666;-84
2022/09/19 07:09:50;;;;;;;3.60;1.92;;;;;;;-145.49;100.00;62790.56;4977382;28;20039;-83
2022/09/19 07:12:21;;;;;;;6.40;2.10;;;;;;;-145.49;100.00;62790.56;4971169;28;20031;-84
2022/09/19 07:14:52;;;;;;;3.53;2.60;;;;;;;-145.49;100.00;62790.56;4998985;28;20058;-83
2022/09/19 07:17:19;;;;;;;3.58;1.90;;;;;;;-145.49;100.00;62790.56;4996621;28;20042;-83
2022/09/19 07:19:51;;;;;;;5.75;3.13;;;;;;;-145.49;100.00;62790.56;4997556;28;20042;-83
2022/09/19 07:22:31;;;;;;;3.17;2.30;;;;;;;-145.49;100.00;62790.56;4975864;28;20042;-83
2022/09/19 07:25:32;;;;;;;3.08;2.15;;;;;;;-145.49;100.00;62790.56;4940063;28;20051;-84
2022/09/19 07:28:05;;;;;;;5.22;2.03;;;;;;;-145.49;100.00;62790.56;4971237;28;20042;-84
2022/09/19 07:30:35;;;;;;;2.85;2.45;;;;;;;-145.49;100.00;62790.56;4956268;28;20042;-85
2022/09/19 07:33:11;;;;;;;5.32;2.38;;;;;;;-145.49;100.00;62790.56;4969159;28;20408;-84
2022/09/19 07:35:41;;;;;;;5.50;3.22;;;;;;;-145.49;100.00;62790.56;4988429;28;20421;-84
2022/09/19 07:38:13;;;;;;;4.28;1.60;;;;;;;-145.49;100.00;62790.56;4971309;28;20516;-85
2022/09/19 07:41:02;;;;;;;10.20;2.70;;;;;;;-145.49;100.00;62790.56;4983467;28;20058;-85
2022/09/19 07:43:53;;;;;;;5.57;2.50;;;;;;;-145.49;100.00;62790.56;4945132;28;20058;-85
2022/09/19 07:49:56;;;;;;;3.53;2.47;;;;;;;-145.49;100.00;62790.56;4972297;28;20046;-85
2022/09/19 07:52:57;;;;;;;3.30;1.98;;;;;;;-145.49;100.00;62790.56;4963842;28;20043;-85
2022/09/19 07:55:24;;;;;;;5.43;2.63;;;;;;;-145.49;100.00;62790.56;4955393;28;20094;-85
2022/09/19 07:57:55;;;;;;;4.57;1.70;;;;;;;-145.49;100.00;62790.56;4940843;28;20038;-85
2022/09/19 08:00:33;;;;;;;7.25;3.55;;;;;;;-145.49;100.00;62790.56;4972244;28;20038;-85
2022/09/19 08:03:18;;;;;;;6.78;2.38;;;;;;;-145.49;100.00;62790.56;4978846;28;20123;-85
2022/09/19 08:05:46;;;;;;;8.85;2.58;;;;;;;-145.49;100.00;62790.56;4953231;28;20038;-85
2022/09/19 08:08:18;;;;;;;17.30;3.75;;;;;;;-145.49;100.00;62790.56;4958093;28;20132;-87
2022/09/19 08:10:47;;;;;;;3.05;1.90;;;;;;;-145.49;100.00;62790.56;4941420;28;20026;-86
2022/09/19 08:13:18;;;;;;;4.82;2.35;;;;;;;-145.49;100.00;62790.56;4970129;28;20038;-86
2022/09/19 08:15:51;;;;;;;6.28;1.98;;;;;;;-145.49;100.00;62790.56;4975312;28;20481;-87
2022/09/19 08:18:23;;;;;;;5.95;2.55;;;;;;;-145.49;100.00;62790.56;4971750;28;20035;-86
2022/09/19 08:20:57;;;;;;;2.72;1.35;;;;;;;-145.49;100.00;62790.56;4957898;28;20061;-86
2022/09/19 08:23:26;;;;;;;5.47;2.67;;;;;;;-145.49;100.00;62790.56;4957998;28;20050;-87
2022/09/19 08:49:13;;;;;;;;;;;;;;;;;;;;;
2022/09/19 08:52:48;;;;;;;;;;;;;;;;;;;;;
2022/09/19 08:56:32;;;;;;;;;;;;;;;;;;;;;
2022/09/19 09:00:39;;;;;;;;;;;;;;;;;;;;;
2022/09/19 09:03:54;;;;;;;3.78;2.33;;;;;;;-145.49;100.00;62790.56;4991575;28;20041;-87
2022/09/19 09:07:53;;;;;;;;;;;;;;;;;;;;;
2022/09/19 09:15:51;;;;;;;;;;;;;;;;;;;;;
2022/09/19 09:19:17;;;;;;;;;;;;;;;;;;;;;
2022/09/19 09:30:39;;;;;;;8.50;2.40;;;;;;;-145.49;100.00;62790.56;4985977;28;20041;-84
2022/09/19 09:33:21;;;;;;;6.53;2.42;;;;;;;-145.49;100.00;62790.56;4984567;28;20026;-83
2022/09/19 09:35:54;;;;;;;13.38;2.35;;;;;;;-145.49;100.00;62790.56;4988630;28;20034;-83
2022/09/19 09:38:36;;;;;;;7.05;2.65;;;;;;;-145.49;100.00;62790.56;4989924;28;20501;-83
2022/09/19 09:44:12;;;;;;;4.85;1.42;;;;;;;-145.49;100.00;62790.56;4988450;28;20039;-83
2022/09/19 09:46:53;;;;;;;3.53;2.03;;;;;;;-145.49;100.00;62790.56;4965137;23;20054;-73
2022/09/19 09:49:29;;;;;;;5.00;1.77;;;;;;;-145.49;100.00;62790.56;4953640;28;20042;-72
2022/09/19 09:52:35;;;;;;;6.38;3.80;;;;;;;-145.49;100.00;62790.56;4953987;28;20034;-73
2022/09/19 09:58:16;;;;;;;4.03;2.08;;;;;;;-145.49;100.00;62790.56;4972341;28;20050;-72
2022/09/19 10:03:54;;;;;;;7.35;2.78;;;;;;;-145.49;100.00;62790.56;4974309;28;20035;-73
2022/09/19 10:06:44;;;;;;;8.07;2.78;;;;;;;-145.49;100.00;62790.56;4975936;28;20052;-73
2022/09/19 10:09:33;;;;;;;5.82;1.95;;;;;;;-145.49;100.00;62790.56;4985054;28;20046;-74
2022/09/19 10:12:26;;;;;;;10.05;2.60;;;;;;;-145.49;100.00;62790.56;4970930;28;20038;-73
2022/09/19 10:14:59;;;;;;;5.30;2.58;;;;;;;-145.49;100.00;62790.56;4989294;28;20539;-74
2022/09/19 10:18:04;;;;;;;2.53;1.80;;;;;;;-145.49;100.00;62790.56;4976177;28;20046;-73
2022/09/19 10:20:41;;;;;;;6.05;2.83;;;;;;;-145.49;100.00;62790.56;4990203;28;20035;-73
2022/09/19 10:23:25;;;;;;;10.15;3.33;;;;;;;-145.49;100.00;62790.56;4986820;28;20042;-74
2022/09/19 10:26:14;;;;;;;25.02;3.17;;;;;;;-145.49;100.00;62790.56;4973302;28;20409;-73
2022/09/19 10:28:53;;;;;;;4.88;2.20;;;;;;;-145.49;100.00;62790.56;4973824;28;20066;-74
2022/09/19 10:31:57;;;;;;;9.07;2.40;;;;;;;-145.49;100.00;62790.56;4967155;28;20049;-74
2022/09/19 10:34:44;;;;;;;3.40;1.98;;;;;;;-145.49;100.00;62790.56;4972957;28;20392;-74
2022/09/19 10:37:27;;;;;;;11.73;2.17;;;;;;;-145.49;100.00;62790.56;4971877;28;20039;-74
2022/09/19 10:39:59;;;;;;;;;;;;;;;-145.49;100.00;62790.56;4968563;28;20505;-73
2022/09/19 10:42:41;;;;;;;5.03;2.08;;;;;;;-145.49;100.00;62790.56;4977064;28;19921;-74
2022/09/19 10:45:25;;;;;;;6.32;1.90;;;;;;;-145.49;100.00;62790.56;4986190;28;20037;-74
2022/09/19 10:48:24;;;;;;;3.85;2.20;;;;;;;-145.49;100.00;62790.56;4968872;28;20042;-74
2022/09/19 10:50:50;;;;;;;6.47;3.22;;;;;;;-145.49;100.00;62790.56;4971056;28;20050;-74
2022/09/19 10:53:28;;;;;;;3.05;2.08;;;;;;;-145.49;100.00;62790.56;4951913;28;20453;-73
2022/09/19 10:55:59;;;;;;;8.07;2.13;;;;;;;-145.49;100.00;62790.56;4988847;28;20046;-73
2022/09/19 10:58:35;;;;;;;7.53;3.60;;;;;;;-145.49;100.00;62790.56;4970137;28;20043;-74
2022/09/19 11:01:23;;;;;;;5.13;1.60;;;;;;;-145.49;100.00;62790.56;4987726;28;20046;-74
2022/09/19 11:04:23;;;;;;;4.50;2.53;;;;;;;-145.49;100.00;62790.56;4990244;28;20485;-74
2022/09/19 11:07:16;;;;;;;4.38;1.95;;;;;;;-145.49;100.00;62790.56;4971101;28;20042;-74
2022/09/19 11:09:45;;;;;;;4.33;2.70;;;;;;;-145.49;100.00;62790.56;4987886;28;20030;-75
2022/09/19 11:12:17;;;;;;;3.65;2.08;;;;;;;-145.49;100.00;62790.56;4990446;28;20030;-74
2022/09/19 11:14:55;;;;;;;7.38;2.97;;;;;;;-145.49;100.00;62790.56;4996851;28;20026;-74
2022/09/19 11:17:33;;;;;;;5.10;2.72;;;;;;;-145.49;100.00;62790.56;4994450;28;20030;-75
2022/09/19 11:20:16;;;;;;;4.63;2.80;;;;;;;-145.49;100.00;62790.56;4973149;28;20039;-76
2022/09/19 11:23:07;;;;;;;5.88;2.67;;;;;;;-145.49;100.00;62790.56;4988353;28;20031;-75
2022/09/19 11:25:51;;;;;;;20.55;3.63;;;;;;;-145.49;100.00;62790.56;4972634;28;20038;-75
2022/09/19 11:28:54;;;;;;;4.97;2.63;;;;;;;-145.49;100.00;62790.56;4973787;28;20035;-75
2022/09/19 11:31:41;;;;;;;5.18;2.83;;;;;;;-145.49;100.00;62790.56;4977137;28;20065;-74
2022/09/19 11:34:34;;;;;;;8.13;2.22;;;;;;;-145.49;100.00;62790.56;4971504;28;20397;-75
2022/09/19 11:37:40;;;;;;;3.88;1.98;;;;;;;-145.49;100.00;62790.56;4988090;28;20042;-73
2022/09/19 11:40:25;;;;;;;8.95;2.72;;;;;;;-145.49;100.00;62790.56;4972929;28;20045;-73
2022/09/19 11:43:42;;;;;;;4.85;1.90;;;;;;;-145.49;100.00;62790.56;4973071;28;20051;-74
2022/09/19 11:46:20;;;;;;;3.75;2.22;;;;;;;-145.49;100.00;62790.56;4983776;28;20047;-74
2022/09/19 11:49:11;;;;;;;4.25;2.67;;;;;;;-145.49;100.00;62790.56;4982636;28;20042;-74
2022/09/19 11:52:26;;;;;;;5.70;2.15;;;;;;;-145.49;100.00;62790.56;4972302;28;20049;-74
2022/09/19 11:55:10;;;;;;;2.22;1.58;;;;;;;-145.49;100.00;62790.56;4964120;28;20043;-73
2022/09/19 11:57:54;;;;;;;5.03;2.38;;;;;;;-145.49;100.00;62790.56;4971342;28;20030;-73
2022/09/19 12:00:25;;;;;;;6.50;3.90;;;;;;;-145.49;100.00;62790.56;4969969;28;20035;-73
2022/09/19 12:03:25;;;;;;;3.63;2.20;;;;;;;-145.49;100.00;62790.56;4972971;28;20049;-74
2022/09/19 12:06:47;;;;;;;5.30;2.00;;;;;;;-145.49;100.00;62790.56;4964824;28;20057;-74
2022/09/19 12:09:13;;;;;;;2.58;1.60;;;;;;;-145.49;100.00;62790.56;4972420;28;20043;-74
2022/09/19 12:11:43;;;;;;;4.53;2.47;;;;;;;-145.49;100.00;62790.56;4971467;28;20126;-73
2022/09/19 12:14:19;;;;;;;2.60;1.92;;;;;;;-145.49;100.00;62790.56;4972808;28;20034;-74
2022/09/19 12:17:14;;;;;;;8.07;2.33;;;;;;;-145.49;100.00;62790.56;4970198;28;20035;-74
2022/09/19 12:19:49;;;;;;;5.80;1.92;;;;;;;-145.49;100.00;62790.56;4956943;28;20474;-74
2022/09/19 12:22:26;;;;;;;9.43;2.40;;;;;;;-145.49;100.00;62790.56;4969577;28;20038;-74
2022/09/19 12:25:20;;;;;;;6.85;1.77;;;;;;;-145.49;100.00;62790.56;4960188;28;20035;-74
2022/09/19 12:27:57;;;;;;;3.45;1.90;;;;;;;-145.49;100.00;62790.56;4968691;28;20038;-74
2022/09/19 12:30:35;;;;;;;5.43;2.33;;;;;;;-145.49;100.00;62790.56;4972262;28;20035;-73
2022/09/19 12:33:16;;;;;;;4.22;1.90;;;;;;;-145.49;100.00;62790.56;4970841;28;20026;-74
2022/09/19 12:36:06;;;;;;;4.47;2.22;;;;;;;-145.49;100.00;62790.56;4954423;28;20053;-74
2022/09/19 12:39:07;;;;;;;7.65;2.38;;;;;;;-145.49;100.00;62790.56;4940960;28;20043;-74
2022/09/19 12:41:49;;;;;;;5.35;2.00;;;;;;;-145.49;100.00;62790.56;4971217;28;20045;-72
2022/09/19 12:44:25;;;;;;;3.70;1.45;;;;;;;-145.49;100.00;62790.56;4974183;28;20034;-73
2022/09/19 12:47:25;;;;;;;6.07;1.88;;;;;;;-145.49;100.00;62790.56;4974565;28;20053;-74
2022/09/19 12:50:42;;;;;;;7.70;2.05;;;;;;;-145.49;100.00;62790.56;4970034;28;20046;-73
2022/09/19 12:53:27;;;;;;;2.15;1.92;;;;;;;-145.49;100.00;62790.56;4966780;28;20038;-74
2022/09/19 12:55:56;;;;;;;3.10;1.90;;;;;;;-145.49;100.00;62790.56;4987582;28;20043;-74
2022/09/19 12:58:36;;;;;;;2.55;1.27;;;;;;;-145.49;100.00;62790.56;4970621;28;20038;-73
2022/09/19 13:01:25;;;;;;;3.33;1.88;;;;;;;-145.49;100.00;62790.56;4972070;28;20034;-73
2022/09/19 13:04:18;;;;;;;6.25;1.70;;;;;;;-145.49;100.00;62790.56;4968466;28;20523;-74
2022/09/19 13:06:50;;;;;;;4.47;1.65;;;;;;;-145.49;100.00;62790.56;4962392;28;20077;-74
2022/09/19 13:09:32;;;;;;;6.70;2.40;;;;;;;-145.49;100.00;62790.56;4981039;28;20183;-74